sensor_id;sensor_type;location;lat;lon;timestamp;pressure;altitude;pressure_sealevel;temperature;humidity
498;BME280;39559;48.630;9.162;2022-07-09T00:00:48;98622.41;;;9.59;100.00
498;BME280;39559;48.630;9.162;2022-07-09T00:03:14;98619.03;;;9.56;100.00
498;BME280;39559;48.630;9.162;2022-07-09T00:05:39;98620.00;;;9.52;100.00
498;BME280;39559;48.630;9.162;2022-07-09T00:08:05;98619.06;;;9.54;100.00
498;BME280;39559;48.630;9.162;2022-07-09T00:10:30;98626.78;;;9.57;100.00
498;BME280;39559;48.630;9.162;2022-07-09T00:14:59;98623.41;;;9.54;100.00
498;BME280;39559;48.630;9.162;2022-07-09T00:17:24;98612.91;;;9.58;100.00
498;BME280;39559;48.630;9.162;2022-07-09T00:19:51;98612.22;;;9.50;100.00
498;BME280;39559;48.630;9.162;2022-07-09T00:22:17;98610.47;;;9.52;100.00
498;BME280;39559;48.630;9.162;2022-07-09T00:24:43;98607.84;;;9.54;100.00
498;BME280;39559;48.630;9.162;2022-07-09T00:27:08;98611.50;;;9.44;100.00
498;BME280;39559;48.630;9.162;2022-07-09T00:29:34;98608.03;;;9.45;100.00
498;BME280;39559;48.630;9.162;2022-07-09T00:32:00;98601.94;;;9.46;100.00
498;BME280;39559;48.630;9.162;2022-07-09T00:34:25;98603.06;;;9.34;100.00
498;BME280;39559;48.630;9.162;2022-07-09T00:38:56;98599.72;;;9.27;100.00
498;BME280;39559;48.630;9.162;2022-07-09T00:41:21;98593.75;;;9.23;100.00
498;BME280;39559;48.630;9.162;2022-07-09T00:43:48;98596.41;;;9.20;100.00
498;BME280;39559;48.630;9.162;2022-07-09T00:46:15;98598.16;;;9.18;100.00
498;BME280;39559;48.630;9.162;2022-07-09T00:48:41;98586.13;;;9.14;100.00
498;BME280;39559;48.630;9.162;2022-07-09T00:51:07;98589.66;;;9.12;100.00
498;BME280;39559;48.630;9.162;2022-07-09T00:53:34;98574.13;;;9.12;100.00
498;BME280;39559;48.630;9.162;2022-07-09T00:56:00;98581.75;;;9.18;100.00
498;BME280;39559;48.630;9.162;2022-07-09T00:58:26;98581.06;;;9.10;100.00
498;BME280;39559;48.630;9.162;2022-07-09T01:02:53;98571.50;;;9.13;100.00
498;BME280;39559;48.630;9.162;2022-07-09T01:05:18;98564.03;;;8.96;100.00
498;BME280;39559;48.630;9.162;2022-07-09T01:07:44;98561.41;;;8.98;100.00
498;BME280;39559;48.630;9.162;2022-07-09T01:10:10;98567.34;;;9.05;100.00
498;BME280;39559;48.630;9.162;2022-07-09T01:12:35;98559.47;;;9.08;100.00
498;BME280;39559;48.630;9.162;2022-07-09T01:15:01;98564.81;;;9.00;100.00
498;BME280;39559;48.630;9.162;2022-07-09T01:17:26;98563.13;;;8.99;100.00
498;BME280;39559;48.630;9.162;2022-07-09T01:19:52;98562.31;;;8.97;100.00
498;BME280;39559;48.630;9.162;2022-07-09T01:22:19;98558.97;;;8.90;100.00
498;BME280;39559;48.630;9.162;2022-07-09T01:26:53;98552.03;;;8.91;100.00
498;BME280;39559;48.630;9.162;2022-07-09T01:29:21;98553.03;;;8.83;100.00
498;BME280;39559;48.630;9.162;2022-07-09T01:31:46;98558.34;;;8.77;100.00
498;BME280;39559;48.630;9.162;2022-07-09T01:34:12;98553.16;;;8.77;100.00
498;BME280;39559;48.630;9.162;2022-07-09T01:36:38;98553.13;;;8.80;100.00
498;BME280;39559;48.630;9.162;2022-07-09T01:39:04;98546.25;;;8.76;100.00
498;BME280;39559;48.630;9.162;2022-07-09T01:41:29;98544.63;;;8.72;100.00
498;BME280;39559;48.630;9.162;2022-07-09T01:43:57;98541.25;;;8.67;100.00
498;BME280;39559;48.630;9.162;2022-07-09T01:46:23;98544.81;;;8.60;100.00
498;BME280;39559;48.630;9.162;2022-07-09T01:50:46;98536.16;;;8.62;100.00
498;BME280;39559;48.630;9.162;2022-07-09T01:53:12;98536.13;;;8.64;100.00
498;BME280;39559;48.630;9.162;2022-07-09T01:55:37;98539.59;;;8.63;100.00
498;BME280;39559;48.630;9.162;2022-07-09T01:58:03;98540.53;;;8.59;100.00
498;BME280;39559;48.630;9.162;2022-07-09T02:00:30;98535.38;;;8.59;100.00
498;BME280;39559;48.630;9.162;2022-07-09T02:02:56;98533.56;;;8.62;100.00
498;BME280;39559;48.630;9.162;2022-07-09T02:05:22;98526.72;;;8.58;100.00
498;BME280;39559;48.630;9.162;2022-07-09T02:07:48;98525.00;;;8.59;100.00
498;BME280;39559;48.630;9.162;2022-07-09T02:10:14;98522.47;;;8.56;100.00
498;BME280;39559;48.630;9.162;2022-07-09T02:14:44;98520.75;;;8.55;100.00
498;BME280;39559;48.630;9.162;2022-07-09T02:17:11;98520.03;;;8.48;100.00
498;BME280;39559;48.630;9.162;2022-07-09T02:19:36;98521.72;;;8.48;100.00
498;BME280;39559;48.630;9.162;2022-07-09T02:22:02;98520.03;;;8.48;100.00
498;BME280;39559;48.630;9.162;2022-07-09T02:24:28;98518.31;;;8.45;100.00
498;BME280;39559;48.630;9.162;2022-07-09T02:26:54;98515.75;;;8.44;100.00
498;BME280;39559;48.630;9.162;2022-07-09T02:29:20;98525.22;;;8.47;100.00
498;BME280;39559;48.630;9.162;2022-07-09T02:31:46;98527.97;;;8.34;100.00
498;BME280;39559;48.630;9.162;2022-07-09T02:34:11;98522.75;;;8.39;100.00
498;BME280;39559;48.630;9.162;2022-07-09T02:38:42;98524.50;;;8.37;100.00
498;BME280;39559;48.630;9.162;2022-07-09T02:41:08;98524.59;;;8.31;100.00
498;BME280;39559;48.630;9.162;2022-07-09T02:43:33;98527.47;;;8.14;100.00
498;BME280;39559;48.630;9.162;2022-07-09T02:45:59;98528.41;;;8.10;100.00
498;BME280;39559;48.630;9.162;2022-07-09T02:48:25;98536.16;;;8.10;100.00
498;BME280;39559;48.630;9.162;2022-07-09T02:50:53;98531.72;;;8.16;100.00
498;BME280;39559;48.630;9.162;2022-07-09T02:53:20;98529.09;;;8.18;100.00
498;BME280;39559;48.630;9.162;2022-07-09T02:55:46;98524.75;;;8.21;100.00
498;BME280;39559;48.630;9.162;2022-07-09T02:58:12;98527.47;;;8.12;100.00
498;BME280;39559;48.630;9.162;2022-07-09T03:02:40;98530.19;;;8.04;100.00
498;BME280;39559;48.630;9.162;2022-07-09T03:05:05;98518.84;;;8.13;100.00
498;BME280;39559;48.630;9.162;2022-07-09T03:07:31;98518.91;;;8.08;100.00
498;BME280;39559;48.630;9.162;2022-07-09T03:09:57;98526.81;;;7.99;100.00
498;BME280;39559;48.630;9.162;2022-07-09T03:12:22;98528.44;;;8.06;100.00
498;BME280;39559;48.630;9.162;2022-07-09T03:14:48;98525.88;;;8.03;100.00
498;BME280;39559;48.630;9.162;2022-07-09T03:17:13;98518.06;;;8.08;100.00
498;BME280;39559;48.630;9.162;2022-07-09T03:19:39;98525.06;;;8.01;100.00
498;BME280;39559;48.630;9.162;2022-07-09T03:22:04;98525.16;;;7.95;100.00
498;BME280;39559;48.630;9.162;2022-07-09T03:26:38;98525.34;;;7.83;100.00
498;BME280;39559;48.630;9.162;2022-07-09T03:29:03;98526.19;;;7.82;100.00
498;BME280;39559;48.630;9.162;2022-07-09T03:31:29;98530.47;;;7.86;100.00
498;BME280;39559;48.630;9.162;2022-07-09T03:33:55;98524.41;;;7.87;100.00
498;BME280;39559;48.630;9.162;2022-07-09T03:36:20;98526.97;;;7.90;100.00
498;BME280;39559;48.630;9.162;2022-07-09T03:38:46;98520.13;;;7.86;100.00
498;BME280;39559;48.630;9.162;2022-07-09T03:41:11;98519.31;;;7.82;100.00
498;BME280;39559;48.630;9.162;2022-07-09T03:43:37;98526.28;;;7.79;100.00
498;BME280;39559;48.630;9.162;2022-07-09T03:46:02;98534.88;;;7.79;100.00
498;BME280;39559;48.630;9.162;2022-07-09T03:50:35;98529.66;;;7.82;100.00
498;BME280;39559;48.630;9.162;2022-07-09T03:53:01;98533.13;;;7.81;100.00
498;BME280;39559;48.630;9.162;2022-07-09T03:55:27;98534.03;;;7.79;100.00
498;BME280;39559;48.630;9.162;2022-07-09T03:57:52;98530.69;;;7.71;100.00
498;BME280;39559;48.630;9.162;2022-07-09T04:00:18;98531.59;;;7.68;100.00
498;BME280;39559;48.630;9.162;2022-07-09T04:02:43;98529.00;;;7.69;100.00
498;BME280;39559;48.630;9.162;2022-07-09T04:05:09;98534.09;;;7.74;100.00
498;BME280;39559;48.630;9.162;2022-07-09T04:07:35;98534.09;;;7.73;100.00
498;BME280;39559;48.630;9.162;2022-07-09T04:10:01;98539.22;;;7.77;100.00
498;BME280;39559;48.630;9.162;2022-07-09T04:14:33;98534.16;;;7.69;100.00
498;BME280;39559;48.630;9.162;2022-07-09T04:16:59;98541.00;;;7.72;100.00
498;BME280;39559;48.630;9.162;2022-07-09T04:19:25;98545.25;;;7.78;100.00
498;BME280;39559;48.630;9.162;2022-07-09T04:21:50;98538.31;;;7.78;100.00
498;BME280;39559;48.630;9.162;2022-07-09T04:24:16;98549.47;;;7.82;100.00
498;BME280;39559;48.630;9.162;2022-07-09T04:26:43;98548.72;;;7.77;100.00
498;BME280;39559;48.630;9.162;2022-07-09T04:29:08;98546.97;;;7.77;100.00
498;BME280;39559;48.630;9.162;2022-07-09T04:31:34;98552.16;;;7.76;100.00
498;BME280;39559;48.630;9.162;2022-07-09T04:33:59;98547.94;;;7.70;100.00
498;BME280;39559;48.630;9.162;2022-07-09T04:38:31;98548.53;;;7.87;100.00
498;BME280;39559;48.630;9.162;2022-07-09T04:40:57;98543.25;;;7.97;100.00
498;BME280;39559;48.630;9.162;2022-07-09T04:43:23;98546.66;;;7.99;100.00
498;BME280;39559;48.630;9.162;2022-07-09T04:45:48;98544.97;;;7.96;100.00
498;BME280;39559;48.630;9.162;2022-07-09T04:48:14;98549.34;;;7.91;100.00
498;BME280;39559;48.630;9.162;2022-07-09T04:50:39;98560.56;;;7.93;100.00
498;BME280;39559;48.630;9.162;2022-07-09T04:53:05;98551.78;;;8.02;100.00
498;BME280;39559;48.630;9.162;2022-07-09T04:55:31;98548.44;;;7.97;100.00
498;BME280;39559;48.630;9.162;2022-07-09T04:57:56;98557.84;;;7.99;100.00
498;BME280;39559;48.630;9.162;2022-07-09T05:02:30;98549.09;;;8.10;100.00
498;BME280;39559;48.630;9.162;2022-07-09T05:04:55;98546.53;;;8.06;100.00
498;BME280;39559;48.630;9.162;2022-07-09T05:07:21;98549.00;;;8.14;100.00
498;BME280;39559;48.630;9.162;2022-07-09T05:09:46;98553.16;;;8.26;100.00
498;BME280;39559;48.630;9.162;2022-07-09T05:12:12;98550.34;;;8.38;100.00
498;BME280;39559;48.630;9.162;2022-07-09T05:14:38;98543.28;;;8.50;100.00
498;BME280;39559;48.630;9.162;2022-07-09T05:17:04;98539.66;;;8.60;100.00
498;BME280;39559;48.630;9.162;2022-07-09T05:19:30;98541.41;;;8.58;100.00
498;BME280;39559;48.630;9.162;2022-07-09T05:21:56;98540.31;;;8.71;100.00
498;BME280;39559;48.630;9.162;2022-07-09T05:26:28;98538.41;;;8.81;100.00
498;BME280;39559;48.630;9.162;2022-07-09T05:28:55;98538.25;;;8.89;100.00
498;BME280;39559;48.630;9.162;2022-07-09T05:31:21;98538.09;;;8.98;100.00
498;BME280;39559;48.630;9.162;2022-07-09T05:33:46;98537.84;;;9.10;100.00
498;BME280;39559;48.630;9.162;2022-07-09T05:36:12;98539.41;;;9.19;100.00
498;BME280;39559;48.630;9.162;2022-07-09T05:38:38;98546.25;;;9.23;100.00
498;BME280;39559;48.630;9.162;2022-07-09T05:41:04;98532.25;;;9.32;100.00
498;BME280;39559;48.630;9.162;2022-07-09T05:43:29;98538.94;;;9.42;100.00
498;BME280;39559;48.630;9.162;2022-07-09T05:45:55;98534.44;;;9.50;100.00
498;BME280;39559;48.630;9.162;2022-07-09T05:50:26;98534.06;;;9.67;100.00
498;BME280;39559;48.630;9.162;2022-07-09T05:52:52;98540.66;;;9.82;100.00
498;BME280;39559;48.630;9.162;2022-07-09T05:55:18;98530.16;;;9.88;100.00
498;BME280;39559;48.630;9.162;2022-07-09T05:57:43;98533.28;;;10.03;100.00
498;BME280;39559;48.630;9.162;2022-07-09T06:00:09;98538.13;;;10.16;100.00
498;BME280;39559;48.630;9.162;2022-07-09T06:02:34;98532.66;;;10.29;100.00
498;BME280;39559;48.630;9.162;2022-07-09T06:05:00;98541.19;;;10.35;100.00
498;BME280;39559;48.630;9.162;2022-07-09T06:07:25;98540.94;;;10.45;100.00
498;BME280;39559;48.630;9.162;2022-07-09T06:09:51;98545.00;;;10.55;100.00
498;BME280;39559;48.630;9.162;2022-07-09T06:14:25;98540.16;;;10.75;100.00
498;BME280;39559;48.630;9.162;2022-07-09T06:16:50;98538.06;;;10.90;100.00
498;BME280;39559;48.630;9.162;2022-07-09T06:19:16;98539.41;;;11.03;100.00
498;BME280;39559;48.630;9.162;2022-07-09T06:21:42;98540.75;;;11.17;100.00
498;BME280;39559;48.630;9.162;2022-07-09T06:24:07;98534.31;;;11.31;100.00
498;BME280;39559;48.630;9.162;2022-07-09T06:26:33;98534.47;;;11.55;100.00
498;BME280;39559;48.630;9.162;2022-07-09T06:28:59;98535.84;;;11.67;100.00
498;BME280;39559;48.630;9.162;2022-07-09T06:31:25;98539.88;;;11.77;100.00
498;BME280;39559;48.630;9.162;2022-07-09T06:33:51;98528.22;;;11.90;100.00
498;BME280;39559;48.630;9.162;2022-07-09T06:38:23;98531.78;;;12.15;100.00
498;BME280;39559;48.630;9.162;2022-07-09T06:40:49;98533.97;;;12.28;100.00
498;BME280;39559;48.630;9.162;2022-07-09T06:43:14;98520.41;;;12.44;100.00
498;BME280;39559;48.630;9.162;2022-07-09T06:45:40;98529.41;;;12.60;100.00
498;BME280;39559;48.630;9.162;2022-07-09T06:48:05;98526.44;;;12.71;100.00
498;BME280;39559;48.630;9.162;2022-07-09T06:50:31;98527.53;;;12.91;100.00
498;BME280;39559;48.630;9.162;2022-07-09T06:52:56;98526.34;;;12.99;100.00
498;BME280;39559;48.630;9.162;2022-07-09T06:55:22;98519.09;;;13.07;100.00
498;BME280;39559;48.630;9.162;2022-07-09T06:57:48;98517.38;;;13.32;100.00
498;BME280;39559;48.630;9.162;2022-07-09T07:02:22;98513.63;;;13.62;100.00
498;BME280;39559;48.630;9.162;2022-07-09T07:04:47;98519.88;;;13.80;100.00
498;BME280;39559;48.630;9.162;2022-07-09T07:07:13;98521.28;;;13.89;100.00
498;BME280;39559;48.630;9.162;2022-07-09T07:09:38;98513.75;;;14.04;100.00
498;BME280;39559;48.630;9.162;2022-07-09T07:12:04;98512.59;;;14.31;100.00
498;BME280;39559;48.630;9.162;2022-07-09T07:14:30;98510.22;;;14.47;100.00
498;BME280;39559;48.630;9.162;2022-07-09T07:16:56;98508.03;;;14.58;100.00
498;BME280;39559;48.630;9.162;2022-07-09T07:19:21;98510.91;;;14.73;100.00
498;BME280;39559;48.630;9.162;2022-07-09T07:21:48;98509.66;;;14.82;100.00
498;BME280;39559;48.630;9.162;2022-07-09T07:26:20;98517.47;;;15.42;100.00
498;BME280;39559;48.630;9.162;2022-07-09T07:28:46;98507.50;;;15.50;99.21
498;BME280;39559;48.630;9.162;2022-07-09T07:31:11;98506.28;;;15.57;99.69
498;BME280;39559;48.630;9.162;2022-07-09T07:33:37;98505.94;;;15.65;99.05
498;BME280;39559;48.630;9.162;2022-07-09T07:36:04;98502.13;;;15.72;99.71
498;BME280;39559;48.630;9.162;2022-07-09T07:38:30;98503.84;;;15.71;100.00
498;BME280;39559;48.630;9.162;2022-07-09T07:40:55;98497.59;;;15.76;100.00
498;BME280;39559;48.630;9.162;2022-07-09T07:43:21;98498.56;;;15.73;100.00
498;BME280;39559;48.630;9.162;2022-07-09T07:45:46;98506.06;;;15.81;100.00
498;BME280;39559;48.630;9.162;2022-07-09T07:50:18;98508.28;;;15.90;100.00
498;BME280;39559;48.630;9.162;2022-07-09T07:52:44;98506.38;;;15.93;100.00
498;BME280;39559;48.630;9.162;2022-07-09T07:55:09;98504.78;;;16.08;100.00
498;BME280;39559;48.630;9.162;2022-07-09T07:57:35;98505.16;;;16.18;100.00
498;BME280;39559;48.630;9.162;2022-07-09T08:00:01;98498.69;;;16.25;99.06
498;BME280;39559;48.630;9.162;2022-07-09T08:02:27;98505.94;;;16.38;99.56
498;BME280;39559;48.630;9.162;2022-07-09T08:04:53;98503.25;;;16.39;97.24
498;BME280;39559;48.630;9.162;2022-07-09T08:07:18;98496.47;;;16.53;97.57
498;BME280;39559;48.630;9.162;2022-07-09T08:09:47;98505.09;;;16.55;98.88
498;BME280;39559;48.630;9.162;2022-07-09T08:14:17;98508.69;;;17.04;92.46
498;BME280;39559;48.630;9.162;2022-07-09T08:16:42;98501.50;;;17.08;95.28
498;BME280;39559;48.630;9.162;2022-07-09T08:19:08;98491.69;;;17.12;90.99
498;BME280;39559;48.630;9.162;2022-07-09T08:21:33;98494.72;;;17.37;93.22
498;BME280;39559;48.630;9.162;2022-07-09T08:23:59;98489.47;;;17.69;90.26
498;BME280;39559;48.630;9.162;2022-07-09T08:26:28;98491.41;;;17.81;87.02
498;BME280;39559;48.630;9.162;2022-07-09T08:28:55;98489.88;;;17.93;82.85
498;BME280;39559;48.630;9.162;2022-07-09T08:31:22;98485.72;;;18.05;70.16
498;BME280;39559;48.630;9.162;2022-07-09T08:33:48;98481.53;;;18.17;71.44
498;BME280;39559;48.630;9.162;2022-07-09T08:38:14;98483.88;;;18.37;68.57
498;BME280;39559;48.630;9.162;2022-07-09T08:40:40;98470.94;;;18.49;62.97
498;BME280;39559;48.630;9.162;2022-07-09T08:43:06;98474.91;;;18.56;60.55
498;BME280;39559;48.630;9.162;2022-07-09T08:45:31;98478.56;;;18.68;60.43
498;BME280;39559;48.630;9.162;2022-07-09T08:48:00;98478.09;;;18.75;64.99
498;BME280;39559;48.630;9.162;2022-07-09T08:50:26;98473.00;;;18.88;63.47
498;BME280;39559;48.630;9.162;2022-07-09T08:52:53;98476.31;;;18.92;59.78
498;BME280;39559;48.630;9.162;2022-07-09T08:55:19;98472.63;;;19.09;62.83
498;BME280;39559;48.630;9.162;2022-07-09T08:57:45;98470.09;;;19.22;64.77
498;BME280;39559;48.630;9.162;2022-07-09T09:02:13;98455.84;;;19.38;62.78
498;BME280;39559;48.630;9.162;2022-07-09T09:04:40;98452.44;;;19.51;61.88
498;BME280;39559;48.630;9.162;2022-07-09T09:07:19;98455.13;;;19.64;62.18
498;BME280;39559;48.630;9.162;2022-07-09T09:09:45;98449.47;;;19.70;59.32
498;BME280;39559;48.630;9.162;2022-07-09T09:12:12;98447.13;;;19.65;62.42
498;BME280;39559;48.630;9.162;2022-07-09T09:14:37;98446.31;;;19.65;67.67
498;BME280;39559;48.630;9.162;2022-07-09T09:17:12;98443.09;;;19.74;63.78
498;BME280;39559;48.630;9.162;2022-07-09T09:19:38;98443.97;;;19.87;62.81
498;BME280;39559;48.630;9.162;2022-07-09T09:22:05;98448.22;;;20.03;63.12
498;BME280;39559;48.630;9.162;2022-07-09T09:26:14;98438.50;;;20.18;67.10
498;BME280;39559;48.630;9.162;2022-07-09T09:28:47;98443.97;;;20.27;63.73
498;BME280;39559;48.630;9.162;2022-07-09T09:31:30;98431.34;;;20.58;59.59
498;BME280;39559;48.630;9.162;2022-07-09T09:34:10;98440.06;;;20.20;64.94
498;BME280;39559;48.630;9.162;2022-07-09T09:36:44;98436.53;;;20.47;60.35
498;BME280;39559;48.630;9.162;2022-07-09T09:39:18;98432.81;;;20.49;60.21
498;BME280;39559;48.630;9.162;2022-07-09T09:41:49;98428.59;;;20.47;60.88
498;BME280;39559;48.630;9.162;2022-07-09T09:44:24;98435.34;;;20.38;64.27
498;BME280;39559;48.630;9.162;2022-07-09T09:46:53;98421.00;;;20.55;62.31
498;BME280;39559;48.630;9.162;2022-07-09T09:50:10;98420.81;;;20.84;57.90
498;BME280;39559;48.630;9.162;2022-07-09T09:52:40;98418.69;;;20.38;62.78
498;BME280;39559;48.630;9.162;2022-07-09T09:55:06;98421.03;;;20.68;57.25
498;BME280;39559;48.630;9.162;2022-07-09T09:57:32;98408.22;;;21.00;58.66
498;BME280;39559;48.630;9.162;2022-07-09T09:59:59;98413.81;;;21.21;61.94
498;BME280;39559;48.630;9.162;2022-07-09T10:02:28;98398.84;;;21.33;54.10
498;BME280;39559;48.630;9.162;2022-07-09T10:04:54;98404.00;;;21.11;57.94
498;BME280;39559;48.630;9.162;2022-07-09T10:07:21;98402.59;;;21.18;57.16
498;BME280;39559;48.630;9.162;2022-07-09T10:09:56;98393.69;;;20.82;56.28
498;BME280;39559;48.630;9.162;2022-07-09T10:14:05;98394.06;;;21.14;58.21
498;BME280;39559;48.630;9.162;2022-07-09T10:16:40;98395.22;;;21.10;54.44
498;BME280;39559;48.630;9.162;2022-07-09T10:19:06;98388.34;;;21.44;57.87
498;BME280;39559;48.630;9.162;2022-07-09T10:21:42;98379.78;;;21.17;52.67
498;BME280;39559;48.630;9.162;2022-07-09T10:24:08;98379.09;;;21.26;53.62
498;BME280;39559;48.630;9.162;2022-07-09T10:29:02;98377.88;;;21.56;55.80
498;BME280;39559;48.630;9.162;2022-07-09T10:31:29;98376.53;;;21.74;55.20
498;BME280;39559;48.630;9.162;2022-07-09T10:34:06;98378.25;;;21.87;55.71
498;BME280;39559;48.630;9.162;2022-07-09T10:38:02;98368.00;;;21.82;55.37
498;BME280;39559;48.630;9.162;2022-07-09T10:40:38;98375.00;;;21.83;54.48
498;BME280;39559;48.630;9.162;2022-07-09T10:43:04;98374.94;;;22.07;56.37
498;BME280;39559;48.630;9.162;2022-07-09T10:45:50;98371.59;;;22.05;56.84
498;BME280;39559;48.630;9.162;2022-07-09T10:48:15;98368.06;;;22.29;54.05
498;BME280;39559;48.630;9.162;2022-07-09T10:50:45;98371.00;;;22.13;50.40
498;BME280;39559;48.630;9.162;2022-07-09T10:53:14;98368.97;;;22.16;52.49
498;BME280;39559;48.630;9.162;2022-07-09T10:55:43;98368.47;;;21.52;51.92
498;BME280;39559;48.630;9.162;2022-07-09T10:58:20;98364.88;;;21.77;55.47
498;BME280;39559;48.630;9.162;2022-07-09T11:02:00;98358.31;;;21.94;52.79
498;BME280;39559;48.630;9.162;2022-07-09T11:04:30;98360.03;;;22.17;53.07
498;BME280;39559;48.630;9.162;2022-07-09T11:06:56;98347.78;;;22.16;55.36
498;BME280;39559;48.630;9.162;2022-07-09T11:09:24;98350.09;;;21.74;54.90
498;BME280;39559;48.630;9.162;2022-07-09T11:11:51;98355.16;;;21.53;55.27
498;BME280;39559;48.630;9.162;2022-07-09T11:14:16;98353.00;;;21.34;60.84
498;BME280;39559;48.630;9.162;2022-07-09T11:16:53;98354.97;;;21.43;59.24
498;BME280;39559;48.630;9.162;2022-07-09T11:19:19;98342.06;;;21.39;59.11
498;BME280;39559;48.630;9.162;2022-07-09T11:21:46;98346.81;;;21.46;58.27
498;BME280;39559;48.630;9.162;2022-07-09T11:25:56;98347.59;;;21.84;56.47
498;BME280;39559;48.630;9.162;2022-07-09T11:28:24;98342.69;;;22.60;62.03
498;BME280;39559;48.630;9.162;2022-07-09T11:31:03;98347.13;;;22.48;55.02
498;BME280;39559;48.630;9.162;2022-07-09T11:33:30;98344.88;;;22.43;51.35
498;BME280;39559;48.630;9.162;2022-07-09T11:36:19;98350.88;;;22.34;53.78
498;BME280;39559;48.630;9.162;2022-07-09T11:38:49;98344.75;;;22.45;53.31
498;BME280;39559;48.630;9.162;2022-07-09T11:41:15;98344.97;;;22.42;49.31
498;BME280;39559;48.630;9.162;2022-07-09T11:43:48;98335.94;;;22.33;52.77
498;BME280;39559;48.630;9.162;2022-07-09T11:46:21;98333.19;;;22.35;54.83
498;BME280;39559;48.630;9.162;2022-07-09T11:49:50;98330.69;;;22.09;52.41
498;BME280;39559;48.630;9.162;2022-07-09T11:52:23;98330.69;;;21.98;53.88
498;BME280;39559;48.630;9.162;2022-07-09T11:55:02;98331.25;;;21.90;59.25
498;BME280;39559;48.630;9.162;2022-07-09T11:57:31;98335.88;;;21.99;60.53
498;BME280;39559;48.630;9.162;2022-07-09T11:59:57;98327.75;;;21.90;58.36
498;BME280;39559;48.630;9.162;2022-07-09T12:02:24;98322.13;;;21.83;57.04
498;BME280;39559;48.630;9.162;2022-07-09T12:04:50;98321.75;;;21.88;63.82
498;BME280;39559;48.630;9.162;2022-07-09T12:07:16;98322.16;;;22.05;60.51
498;BME280;39559;48.630;9.162;2022-07-09T12:09:42;98317.09;;;22.14;55.59
498;BME280;39559;48.630;9.162;2022-07-09T12:13:46;98311.50;;;22.30;53.57
498;BME280;39559;48.630;9.162;2022-07-09T12:16:11;98296.94;;;22.24;59.80
498;BME280;39559;48.630;9.162;2022-07-09T12:18:37;98302.13;;;22.48;58.46
498;BME280;39559;48.630;9.162;2022-07-09T12:21:03;98293.47;;;22.35;51.46
498;BME280;39559;48.630;9.162;2022-07-09T12:23:28;98304.75;;;22.26;58.02
498;BME280;39559;48.630;9.162;2022-07-09T12:25:53;98292.69;;;22.10;52.92
498;BME280;39559;48.630;9.162;2022-07-09T12:28:19;98293.63;;;21.87;57.95
498;BME280;39559;48.630;9.162;2022-07-09T12:30:44;98292.03;;;22.42;59.94
498;BME280;39559;48.630;9.162;2022-07-09T12:33:10;98276.13;;;22.19;52.04
498;BME280;39559;48.630;9.162;2022-07-09T12:37:42;98272.63;;;22.75;59.41
498;BME280;39559;48.630;9.162;2022-07-09T12:40:09;98270.13;;;22.62;55.98
498;BME280;39559;48.630;9.162;2022-07-09T12:42:36;98280.03;;;22.27;58.72
498;BME280;39559;48.630;9.162;2022-07-09T12:45:03;98274.88;;;22.01;58.83
498;BME280;39559;48.630;9.162;2022-07-09T12:47:29;98273.72;;;21.58;63.45
498;BME280;39559;48.630;9.162;2022-07-09T12:49:54;98272.91;;;21.69;60.50
498;BME280;39559;48.630;9.162;2022-07-09T12:52:20;98281.16;;;22.22;52.19
498;BME280;39559;48.630;9.162;2022-07-09T12:54:45;98262.66;;;22.68;53.23
498;BME280;39559;48.630;9.162;2022-07-09T12:57:11;98254.66;;;23.02;55.96
498;BME280;39559;48.630;9.162;2022-07-09T13:01:37;98262.66;;;23.55;57.11
498;BME280;39559;48.630;9.162;2022-07-09T13:04:02;98256.72;;;23.42;52.87
498;BME280;39559;48.630;9.162;2022-07-09T13:06:28;98251.41;;;23.09;53.25
498;BME280;39559;48.630;9.162;2022-07-09T13:09:01;98257.66;;;23.41;52.41
498;BME280;39559;48.630;9.162;2022-07-09T13:11:26;98253.69;;;23.67;53.27
498;BME280;39559;48.630;9.162;2022-07-09T13:13:52;98252.38;;;23.41;52.42
498;BME280;39559;48.630;9.162;2022-07-09T13:16:18;98247.41;;;23.47;53.38
498;BME280;39559;48.630;9.162;2022-07-09T13:18:43;98246.88;;;23.21;52.00
498;BME280;39559;48.630;9.162;2022-07-09T13:21:09;98249.53;;;23.32;54.89
498;BME280;39559;48.630;9.162;2022-07-09T13:25:32;98260.44;;;22.95;56.50
498;BME280;39559;48.630;9.162;2022-07-09T13:27:57;98258.25;;;23.00;53.44
498;BME280;39559;48.630;9.162;2022-07-09T13:30:23;98246.00;;;23.32;55.55
498;BME280;39559;48.630;9.162;2022-07-09T13:32:50;98250.00;;;23.26;51.85
498;BME280;39559;48.630;9.162;2022-07-09T13:35:15;98242.56;;;23.20;52.67
498;BME280;39559;48.630;9.162;2022-07-09T13:37:41;98236.59;;;23.60;51.98
498;BME280;39559;48.630;9.162;2022-07-09T13:40:07;98232.84;;;23.63;53.30
498;BME280;39559;48.630;9.162;2022-07-09T13:42:33;98224.56;;;23.77;54.62
498;BME280;39559;48.630;9.162;2022-07-09T13:44:59;98228.63;;;24.64;51.66
498;BME280;39559;48.630;9.162;2022-07-09T13:49:31;98218.34;;;24.49;48.73
498;BME280;39559;48.630;9.162;2022-07-09T13:51:56;98227.63;;;24.55;51.92
498;BME280;39559;48.630;9.162;2022-07-09T13:54:25;98219.06;;;23.90;55.41
498;BME280;39559;48.630;9.162;2022-07-09T13:56:51;98224.22;;;23.82;51.68
498;BME280;39559;48.630;9.162;2022-07-09T13:59:16;98204.44;;;23.53;50.84
498;BME280;39559;48.630;9.162;2022-07-09T14:01:42;98200.72;;;23.56;51.35
498;BME280;39559;48.630;9.162;2022-07-09T14:04:07;98195.41;;;23.56;47.88
498;BME280;39559;48.630;9.162;2022-07-09T14:06:33;98205.22;;;23.23;52.30
498;BME280;39559;48.630;9.162;2022-07-09T14:08:58;98204.66;;;23.08;48.70
498;BME280;39559;48.630;9.162;2022-07-09T14:13:20;98202.13;;;22.74;55.72
498;BME280;39559;48.630;9.162;2022-07-09T14:15:46;98198.16;;;23.01;58.51
498;BME280;39559;48.630;9.162;2022-07-09T14:18:11;98193.13;;;22.98;57.38
498;BME280;39559;48.630;9.162;2022-07-09T14:20:37;98191.41;;;23.08;55.53
498;BME280;39559;48.630;9.162;2022-07-09T14:23:02;98189.06;;;23.05;53.96
498;BME280;39559;48.630;9.162;2022-07-09T14:25:28;98185.53;;;22.72;56.03
498;BME280;39559;48.630;9.162;2022-07-09T14:27:54;98185.84;;;22.79;54.49